Time;durP1;ratioP1;P1;durP2;ratioP2;P2;SDS_P1;SDS_P2;PMS_P1;PMS_P2;Temp;Humidity;BMP_temperature;BMP_pressure;BME280_temperature;BME280_humidity;BME280_pressure;Samples;Min_cycle;Max_cycle;Signal;HPM_P1;HPM_P2
2021/12/07 00:00:44;;;;;;;34.55;16.52;;;;;;;-1.10;94.05;100408.94;5108794;28;20537;-77
2021/12/07 00:03:10;;;;;;;41.38;18.13;;;;;;;-1.20;93.95;100397.34;5109581;28;20039;-77
2021/12/07 00:05:36;;;;;;;38.92;16.50;;;;;;;-1.18;93.87;100400.72;5108232;28;20122;-77
2021/12/07 00:08:02;;;;;;;34.83;15.68;;;;;;;-1.22;94.01;100400.06;5108455;28;20028;-77
2021/12/07 00:10:27;;;;;;;37.72;16.02;;;;;;;-1.16;94.15;100417.19;5109500;28;20108;-77
2021/12/07 00:12:53;;;;;;;34.10;15.68;;;;;;;-1.24;94.24;100407.19;5108410;28;20039;-77
2021/12/07 00:15:22;;;;;;;37.45;15.57;;;;;;;-1.24;94.04;100393.22;5114425;28;20041;-77
2021/12/07 00:17:47;;;;;;;33.38;14.07;;;;;;;-1.20;94.37;100410.44;5092312;28;20372;-77
2021/12/07 00:20:17;;;;;;;37.03;15.45;;;;;;;-1.27;94.45;100391.66;5108348;28;20120;-77
2021/12/07 00:22:46;;;;;;;29.98;14.90;;;;;;;-1.28;94.33;100397.84;5108258;28;20049;-76
2021/12/07 00:25:12;;;;;;;41.30;17.38;;;;;;;-1.30;94.40;100381.38;5107823;28;20039;-77
2021/12/07 00:27:38;;;;;;;36.92;15.77;;;;;;;-1.28;94.56;100384.75;5108304;27;20063;-77
2021/12/07 00:30:07;;;;;;;33.60;15.23;;;;;;;-1.27;94.67;100382.00;5108955;28;20139;-77
2021/12/07 00:32:38;;;;;;;37.53;15.40;;;;;;;-1.32;94.73;100378.00;5108086;28;20080;-77
2021/12/07 00:38:11;;;;;;;32.95;15.05;;;;;;;-1.35;94.96;100373.78;5099240;28;20058;-77
2021/12/07 00:40:38;;;;;;;40.17;16.25;;;;;;;-1.37;95.05;100375.66;5108014;28;20039;-76
2021/12/07 00:43:04;;;;;;;32.70;16.35;;;;;;;-1.32;95.18;100372.75;5107942;28;20047;-77
2021/12/07 00:45:33;;;;;;;38.80;16.27;;;;;;;-1.39;95.50;100367.06;5090711;28;20091;-77
2021/12/07 00:47:59;;;;;;;40.90;17.10;;;;;;;-1.27;95.69;100383.78;5108040;28;20028;-77
2021/12/07 00:50:27;;;;;;;42.97;18.55;;;;;;;-1.36;95.62;100372.13;5108036;28;20108;-77
2021/12/07 00:52:54;;;;;;;42.13;17.05;;;;;;;-1.37;95.83;100370.44;5107854;28;20028;-76
2021/12/07 00:55:27;;;;;;;40.90;16.75;;;;;;;-1.43;96.04;100376.03;5107443;28;20035;-77
2021/12/07 00:57:56;;;;;;;38.53;17.77;;;;;;;-1.42;96.11;100375.13;5107707;28;20039;-77
2021/12/07 01:00:25;;;;;;;36.67;16.88;;;;;;;-1.38;96.26;100389.72;5107828;28;20106;-77
2021/12/07 01:02:50;;;;;;;33.63;15.52;;;;;;;-1.49;96.40;100360.72;5107879;28;20050;-77
2021/12/07 01:05:22;;;;;;;45.97;17.98;;;;;;;-1.54;96.58;100357.56;5107630;28;20032;-77
2021/12/07 01:08:18;;;;;;;36.67;15.50;;;;;;;-1.46;96.83;100371.00;5108811;28;20453;-77
2021/12/07 01:27:04;;;;;;;39.47;18.25;;;;;;;-1.45;97.57;100382.31;5106964;28;20100;-77
2021/12/07 01:29:29;;;;;;;37.80;16.48;;;;;;;-1.46;97.39;100385.88;5108725;28;20024;-76
2021/12/07 01:37:12;;;;;;;41.55;17.35;;;;;;;-1.46;97.40;100388.50;5107384;28;20035;-76
2021/12/07 01:53:01;;;;;;;36.72;16.55;;;;;;;-1.31;97.21;100391.00;5111080;28;20093;-76
2021/12/07 02:01:06;;;;;;;39.80;16.17;;;;;;;-1.26;97.00;100388.09;5107429;28;20035;-76
2021/12/07 02:03:31;;;;;;;38.25;16.90;;;;;;;-1.24;97.07;100393.22;5093515;28;20035;-76
2021/12/07 02:05:57;;;;;;;36.25;16.38;;;;;;;-1.29;96.94;100394.38;5110684;28;20032;-76
2021/12/07 02:08:23;;;;;;;40.50;17.95;;;;;;;-1.33;97.23;100377.16;5110649;28;20042;-76
2021/12/07 02:10:52;;;;;;;41.60;18.13;;;;;;;-1.28;97.22;100390.81;5110829;28;20089;-76
2021/12/07 02:15:56;;;;;;;39.20;17.65;;;;;;;-1.33;97.04;100382.41;5110618;28;20053;-77
2021/12/07 02:18:24;;;;;;;43.00;17.48;;;;;;;-1.31;96.86;100371.84;5093770;28;20092;-77
2021/12/07 02:20:50;;;;;;;;;;;;;;;-1.28;96.95;100388.19;5110971;28;20031;-77
2021/12/07 02:23:16;;;;;;;35.97;15.65;;;;;;;-1.28;97.00;100380.34;5110369;28;19911;-77
2021/12/07 02:25:43;;;;;;;42.70;17.95;;;;;;;-1.23;96.94;100381.84;5110161;28;20111;-77
2021/12/07 02:28:14;;;;;;;37.30;17.38;;;;;;;-1.24;96.84;100380.13;5093467;28;20032;-77
2021/12/07 02:30:41;;;;;;;46.75;17.60;;;;;;;-1.27;96.85;100368.91;5110350;28;20036;-77
2021/12/07 02:33:07;;;;;;;44.53;17.30;;;;;;;-1.34;96.90;100364.16;5110196;28;20035;-77
2021/12/07 02:35:33;;;;;;;41.20;20.48;;;;;;;-1.36;97.10;100361.66;5109421;28;20031;-76
2021/12/07 02:38:01;;;;;;;42.45;19.63;;;;;;;-1.34;97.02;100370.22;5110031;28;20049;-77
2021/12/07 02:40:30;;;;;;;41.15;18.17;;;;;;;-1.49;97.16;100334.53;5110277;28;20036;-76
2021/12/07 02:42:55;;;;;;;45.50;20.02;;;;;;;-1.37;97.15;100357.34;5108828;28;20096;-77
2021/12/07 02:45:22;;;;;;;37.30;16.52;;;;;;;-1.45;97.37;100354.38;5092888;28;20572;-77
2021/12/07 02:47:48;;;;;;;45.42;18.45;;;;;;;-1.47;97.41;100351.00;5110072;28;20024;-76
2021/12/07 02:50:14;;;;;;;42.35;19.40;;;;;;;-1.39;97.79;100351.34;5092620;28;20048;-77
2021/12/07 02:52:40;;;;;;;43.25;18.13;;;;;;;-1.44;98.09;100376.16;5109239;28;20040;-77
2021/12/07 02:55:08;;;;;;;40.72;18.35;;;;;;;-1.47;98.19;100374.56;5092741;28;20391;-77
2021/12/07 02:57:35;;;;;;;47.50;18.48;;;;;;;-1.44;98.10;100381.38;5109614;28;20031;-77
2021/12/07 03:00:08;;;;;;;;;;;;;;;-1.46;98.35;100394.56;5093335;28;20032;-77
2021/12/07 03:02:41;;;;;;;39.63;17.60;;;;;;;-1.49;98.26;100390.34;5092799;28;19926;-77
2021/12/07 03:05:19;;;;;;;45.35;19.92;;;;;;;-1.51;98.41;100394.00;5109281;28;20035;-77
2021/12/07 03:08:06;;;;;;;47.85;20.90;;;;;;;-1.53;98.67;100388.03;5092703;28;20039;-77
2021/12/07 03:27:01;;;;;;;53.50;21.02;;;;;;;-1.57;99.59;100416.19;5109183;28;20375;-77
2021/12/07 03:29:27;;;;;;;47.60;19.40;;;;;;;-1.58;99.74;100418.88;5109345;28;20015;-77
2021/12/07 03:31:53;;;;;;;47.25;21.67;;;;;;;-1.63;99.60;100419.16;5108963;28;20472;-76
2021/12/07 03:34:18;;;;;;;48.25;21.10;;;;;;;-1.59;99.83;100422.41;5108374;28;20027;-76
2021/12/07 03:36:44;;;;;;;53.47;22.33;;;;;;;-1.59;100.00;100427.66;5108938;28;20443;-77
2021/12/07 03:39:10;;;;;;;;;;;;;;;-1.57;100.00;100438.88;5109335;28;20070;-77
2021/12/07 03:41:37;;;;;;;53.30;22.30;;;;;;;-1.60;100.00;100439.06;5092097;28;20366;-77
2021/12/07 03:44:03;;;;;;;51.97;23.65;;;;;;;-1.64;100.00;100421.84;5108713;28;20120;-77
2021/12/07 03:46:29;;;;;;;45.45;20.10;;;;;;;-1.59;100.00;100432.88;5108706;28;20126;-77
2021/12/07 03:48:56;;;;;;;54.88;21.10;;;;;;;-1.63;100.00;100426.19;5091866;28;20011;-77
2021/12/07 03:51:22;;;;;;;54.55;23.02;;;;;;;-1.57;100.00;100447.59;5108838;28;20032;-77
2021/12/07 03:53:48;;;;;;;62.95;26.33;;;;;;;-1.55;100.00;100452.72;5109152;28;20475;-76
2021/12/07 03:56:15;;;;;;;54.72;21.85;;;;;;;-1.50;100.00;100458.53;5108836;28;20941;-76
2021/12/07 03:58:42;;;;;;;51.70;21.42;;;;;;;-1.46;100.00;100469.66;5091833;28;20023;-76
2021/12/07 04:01:11;;;;;;;55.38;22.20;;;;;;;-1.50;100.00;100455.91;5108639;28;20023;-77
2021/12/07 04:03:38;;;;;;;52.83;21.52;;;;;;;-1.43;100.00;100465.06;5091390;28;20114;-77
2021/12/07 04:06:06;;;;;;;54.53;23.42;;;;;;;-1.45;100.00;100458.25;5091547;28;20034;-77
2021/12/07 04:08:35;;;;;;;55.20;23.42;;;;;;;-1.44;100.00;100454.72;5108408;28;20032;-77
2021/12/07 04:11:01;;;;;;;54.40;24.20;;;;;;;-1.43;100.00;100465.06;5091678;28;20034;-77
2021/12/07 04:13:27;;;;;;;54.92;22.45;;;;;;;-1.48;100.00;100456.66;5109601;28;20027;-77
2021/12/07 04:15:53;;;;;;;54.38;22.48;;;;;;;-1.46;100.00;100460.03;5108227;28;20042;-77
2021/12/07 04:18:18;;;;;;;61.00;23.00;;;;;;;-1.49;100.00;100462.84;5091583;28;20744;-77
2021/12/07 04:20:44;;;;;;;54.00;24.98;;;;;;;-1.53;100.00;100458.72;5108493;28;20328;-77
2021/12/07 04:23:10;;;;;;;59.47;21.92;;;;;;;-1.51;100.00;100454.22;5110479;28;20585;-77
2021/12/07 04:25:37;;;;;;;53.15;22.77;;;;;;;-1.56;100.00;100448.44;5108939;28;20126;-77
2021/12/07 04:28:04;;;;;;;56.63;23.73;;;;;;;-1.47;100.00;100470.63;5109083;28;20077;-77
2021/12/07 04:30:35;;;;;;;52.42;21.17;;;;;;;-1.60;100.00;100452.16;5108988;28;20042;-77
2021/12/07 04:33:03;;;;;;;53.70;23.17;;;;;;;-1.47;100.00;100475.84;5108415;28;20036;-77
2021/12/07 04:35:29;;;;;;;54.03;23.73;;;;;;;-1.48;100.00;100485.47;5108976;28;20107;-77
2021/12/07 04:37:56;;;;;;;59.20;23.75;;;;;;;-1.44;100.00;100492.22;5107136;28;20350;-77
2021/12/07 04:40:23;;;;;;;;;;;;;;;-1.43;100.00;100488.63;5091433;28;20063;-77
2021/12/07 04:42:49;;;;;;;49.67;21.60;;;;;;;-1.46;100.00;100475.75;5108146;28;19911;-77
2021/12/07 04:46:08;;;;;;;56.63;20.98;;;;;;;-1.54;100.00;100467.53;5107763;28;20362;-77
2021/12/07 04:59:04;;;;;;;54.15;21.77;;;;;;;-1.49;100.00;100491.63;5108586;28;20040;-78
2021/12/07 05:01:31;;;;;;;61.58;24.30;;;;;;;-1.54;100.00;100475.38;5091030;28;20400;-77
2021/12/07 05:04:00;;;;;;;58.60;24.02;;;;;;;-1.45;100.00;100474.81;5107380;28;20099;-77
2021/12/07 05:06:29;;;;;;;64.80;25.55;;;;;;;-1.54;100.00;100467.53;5107845;28;20120;-78
2021/12/07 05:09:01;;;;;;;58.83;22.73;;;;;;;-1.50;100.00;100476.84;5090767;28;20036;-78
2021/12/07 05:11:44;;;;;;;53.40;22.52;;;;;;;-1.44;100.00;100480.91;5107524;28;20034;-79
2021/12/07 05:14:23;;;;;;;44.92;20.90;;;;;;;-1.53;100.00;100462.16;5108392;28;20051;-78
2021/12/07 05:38:26;;;;;;;54.25;22.80;;;;;;;-1.46;99.79;100462.66;5112027;28;20575;-78
2021/12/07 05:40:51;;;;;;;51.15;23.75;;;;;;;-1.36;99.95;100471.66;5112317;28;20102;-78
2021/12/07 05:43:16;;;;;;;56.30;22.83;;;;;;;-1.46;99.63;100448.72;5112164;28;20035;-78
2021/12/07 05:45:42;;;;;;;49.53;21.27;;;;;;;-1.44;99.75;100447.69;5110810;28;20038;-78
2021/12/07 05:48:08;;;;;;;49.92;22.92;;;;;;;-1.54;99.43;100430.88;5093648;28;20055;-79
2021/12/07 05:50:38;;;;;;;55.78;22.17;;;;;;;-1.34;99.61;100468.91;5110914;28;20138;-79
2021/12/07 05:53:06;;;;;;;49.05;20.75;;;;;;;-1.37;99.31;100449.00;5111853;28;20097;-78
2021/12/07 05:55:33;;;;;;;50.20;21.58;;;;;;;-1.38;99.30;100447.31;5111129;28;20063;-78
2021/12/07 05:57:58;;;;;;;49.35;22.20;;;;;;;-1.35;99.35;100455.00;5110783;28;20335;-78
2021/12/07 06:00:27;;;;;;;49.55;22.02;;;;;;;-1.34;99.34;100459.28;5110645;28;20054;-78
2021/12/07 06:02:58;;;;;;;49.35;22.77;;;;;;;-1.38;99.28;100452.56;5110801;28;20514;-79
2021/12/07 06:05:26;;;;;;;49.90;21.40;;;;;;;-1.40;99.28;100449.19;5111520;28;20031;-78
2021/12/07 06:07:51;;;;;;;48.42;20.23;;;;;;;-1.38;99.09;100449.94;5094037;28;20482;-78
2021/12/07 06:10:18;;;;;;;48.55;21.05;;;;;;;-1.40;99.00;100453.59;5093670;28;20061;-78
2021/12/07 06:12:43;;;;;;;53.55;20.63;;;;;;;-1.39;98.96;100445.63;5110819;28;20043;-78
2021/12/07 06:15:11;;;;;;;53.50;20.13;;;;;;;-1.43;98.71;100433.66;5111172;28;20046;-78
2021/12/07 06:17:36;;;;;;;44.78;20.00;;;;;;;-1.34;98.64;100453.19;5111437;27;20069;-78
2021/12/07 06:20:04;;;;;;;42.17;19.42;;;;;;;-1.29;98.77;100467.72;5110500;28;20035;-78
2021/12/07 06:22:30;;;;;;;45.78;20.27;;;;;;;-1.35;98.62;100457.59;5110393;28;20046;-78
2021/12/07 06:24:55;;;;;;;54.00;21.73;;;;;;;-1.34;98.12;100461.91;5111019;28;20023;-79
2021/12/07 06:27:20;;;;;;;47.25;20.60;;;;;;;-1.32;98.14;100451.34;5111414;28;20300;-78
2021/12/07 06:29:46;;;;;;;40.58;17.58;;;;;;;-1.36;97.60;100447.22;5110523;28;20032;-78
2021/12/07 06:32:11;;;;;;;41.67;18.92;;;;;;;-1.35;97.37;100435.81;5110967;28;20074;-78
2021/12/07 06:34:37;;;;;;;38.83;18.02;;;;;;;-1.32;97.29;100454.78;5109892;28;20089;-78
2021/12/07 06:37:03;;;;;;;37.88;17.98;;;;;;;-1.27;97.03;100457.13;5110644;28;20020;-79
2021/12/07 06:39:29;;;;;;;36.30;16.13;;;;;;;-1.35;96.62;100433.19;5094411;28;20040;-78
2021/12/07 06:41:55;;;;;;;37.40;14.93;;;;;;;-1.33;96.48;100429.53;5111484;28;20031;-78
2021/12/07 06:44:21;;;;;;;38.30;15.82;;;;;;;-1.23;96.13;100434.22;5111065;28;20111;-78
2021/12/07 06:46:48;;;;;;;43.28;18.55;;;;;;;-1.24;95.78;100438.63;5093660;28;20028;-79
2021/12/07 06:49:15;;;;;;;37.55;16.77;;;;;;;-1.17;95.54;100447.78;5111056;28;20062;-78
2021/12/07 06:51:41;;;;;;;34.38;14.43;;;;;;;-1.25;94.97;100426.44;5094113;28;20372;-78
2021/12/07 06:54:07;;;;;;;28.23;14.27;;;;;;;-1.18;94.70;100437.41;5111707;28;20106;-77
2021/12/07 06:56:32;;;;;;;34.03;15.13;;;;;;;-1.21;94.50;100427.13;5094070;28;20044;-78
2021/12/07 06:58:58;;;;;;;35.83;14.73;;;;;;;-1.24;94.18;100424.66;5111862;28;20073;-77
2021/12/07 07:01:23;;;;;;;30.52;13.30;;;;;;;-1.19;93.88;100431.31;5110990;28;20309;-79
2021/12/07 07:03:49;;;;;;;34.40;13.95;;;;;;;-1.14;93.53;100425.81;5110734;28;20477;-78
2021/12/07 07:06:14;;;;;;;31.67;13.48;;;;;;;-1.26;93.07;100406.44;5111961;28;20063;-78
2021/12/07 07:08:40;;;;;;;26.27;13.02;;;;;;;-1.30;93.16;100403.16;5092207;28;20092;-78
2021/12/07 07:11:05;;;;;;;30.30;13.25;;;;;;;-1.18;93.02;100417.28;5109736;28;20023;-78
2021/12/07 07:13:32;;;;;;;27.15;14.23;;;;;;;-1.32;92.69;100389.31;5109325;28;20063;-78
2021/12/07 07:15:59;;;;;;;34.25;14.65;;;;;;;-1.18;92.55;100414.66;5109282;28;20050;-78
2021/12/07 07:18:24;;;;;;;30.10;13.98;;;;;;;-1.20;92.62;100415.69;5109349;28;20032;-78
2021/12/07 07:20:50;;;;;;;27.35;12.05;;;;;;;-1.15;92.42;100417.09;5110304;28;20028;-78
2021/12/07 07:23:15;;;;;;;29.10;12.88;;;;;;;-1.12;92.75;100413.44;5110230;28;20456;-78
2021/12/07 07:25:41;;;;;;;35.35;14.65;;;;;;;-1.21;92.19;100400.91;5109770;28;20046;-78
2021/12/07 07:28:06;;;;;;;27.85;12.40;;;;;;;-1.15;91.92;100411.00;5109062;28;20028;-78
2021/12/07 07:30:32;;;;;;;31.08;12.63;;;;;;;-1.23;91.72;100392.31;5109960;28;20085;-77
2021/12/07 07:32:58;;;;;;;33.10;15.07;;;;;;;-1.17;91.87;100407.63;5093362;28;20066;-77
2021/12/07 07:35:23;;;;;;;27.42;11.90;;;;;;;-1.18;91.57;100392.88;5110035;28;20035;-78
2021/12/07 07:37:49;;;;;;;30.58;12.88;;;;;;;-1.20;91.60;100407.84;5092808;28;20043;-77
2021/12/07 07:40:17;;;;;;;30.38;13.63;;;;;;;-1.18;91.26;100395.47;5110295;28;20036;-77
2021/12/07 07:42:44;;;;;;;29.88;14.05;;;;;;;-1.21;91.28;100403.53;5110108;28;20031;-78
2021/12/07 07:45:26;;;;;;;25.23;12.98;;;;;;;-1.19;91.42;100401.66;5109584;28;20032;-77
2021/12/07 07:47:52;;;;;;;32.00;14.80;;;;;;;-1.13;91.16;100411.75;5109795;28;20032;-77
2021/12/07 07:50:18;;;;;;;27.75;13.48;;;;;;;-1.15;91.10;100414.47;5108337;28;20038;-78
2021/12/07 07:52:43;;;;;;;27.45;12.48;;;;;;;-1.12;91.29;100405.59;5108727;28;20036;-78
2021/12/07 07:55:10;;;;;;;27.77;12.65;;;;;;;-1.04;91.16;100429.50;5108339;28;20027;-78
2021/12/07 07:57:35;;;;;;;31.10;13.27;;;;;;;-1.07;91.27;100424.47;5109059;28;20045;-78
2021/12/07 08:00:04;;;;;;;32.13;14.93;;;;;;;-1.13;91.01;100417.00;5109463;28;20126;-78
2021/12/07 08:02:38;;;;;;;31.30;13.93;;;;;;;-1.15;91.32;100426.72;5108769;28;20031;-78
2021/12/07 08:05:04;;;;;;;31.85;12.77;;;;;;;-1.19;91.34;100431.31;5091377;28;20055;-78
2021/12/07 08:07:29;;;;;;;28.67;13.95;;;;;;;-1.14;91.21;100446.75;5091245;28;20128;-78
2021/12/07 08:09:55;;;;;;;26.83;12.90;;;;;;;-1.07;91.77;100463.78;5108469;28;20058;-78
2021/12/07 08:12:21;;;;;;;30.20;13.90;;;;;;;-1.17;91.25;100434.69;5109330;28;20246;-78
2021/12/07 08:14:46;;;;;;;28.00;13.00;;;;;;;-1.17;91.38;100441.69;5108043;28;20467;-77
2021/12/07 08:17:12;;;;;;;30.60;13.73;;;;;;;-1.07;91.24;100459.38;5109357;28;20509;-78
2021/12/07 08:19:37;;;;;;;34.28;14.82;;;;;;;-1.10;91.44;100448.22;5091123;28;20019;-78
2021/12/07 08:22:03;;;;;;;33.20;13.10;;;;;;;-1.08;91.49;100455.09;5108301;28;20035;-78
2021/12/07 08:24:31;;;;;;;33.00;13.77;;;;;;;-1.02;91.49;100466.94;5107962;28;20036;-78
2021/12/07 08:26:57;;;;;;;30.87;12.03;;;;;;;-0.90;91.69;100488.94;5108186;28;20019;-78
2021/12/07 08:29:23;;;;;;;29.10;11.85;;;;;;;-1.06;91.35;100454.97;5091245;28;20305;-78
2021/12/07 08:31:48;;;;;;;32.78;15.88;;;;;;;-0.99;91.40;100466.75;5108121;28;20038;-78
2021/12/07 08:34:14;;;;;;;33.78;15.15;;;;;;;-1.13;91.58;100438.78;5106723;28;20043;-78
2021/12/07 08:36:39;;;;;;;32.10;14.23;;;;;;;-1.01;91.49;100462.53;5108896;28;20039;-78
2021/12/07 08:39:07;;;;;;;32.72;15.35;;;;;;;-1.00;91.62;100462.47;5107536;28;20188;-78
2021/12/07 08:41:33;;;;;;;36.08;15.93;;;;;;;-0.99;91.71;100464.13;5108891;28;20361;-78
2021/12/07 08:43:58;;;;;;;32.53;12.70;;;;;;;-1.17;91.76;100445.16;5109117;28;20043;-78
2021/12/07 08:46:24;;;;;;;32.22;13.82;;;;;;;-1.02;91.92;100472.19;5107850;28;20044;-78
2021/12/07 08:48:49;;;;;;;25.77;14.00;;;;;;;-1.18;92.13;100438.22;5107895;28;20031;-78
2021/12/07 08:51:16;;;;;;;31.33;13.82;;;;;;;-1.08;91.99;100454.22;5095472;28;20459;-78
2021/12/07 08:53:53;;;;;;;29.73;12.70;;;;;;;-0.90;92.07;100481.06;5111478;28;20035;-78
2021/12/07 09:01:49;;;;;;;;;;;;;;;-1.01;92.34;100476.47;5112372;28;20757;-78
2021/12/07 09:04:17;;;;;;;30.35;13.13;;;;;;;-1.00;92.24;100480.81;5111834;28;19955;-78
2021/12/07 09:06:44;;;;;;;29.52;12.88;;;;;;;-1.06;92.39;100470.69;5094931;28;20039;-78
2021/12/07 09:09:10;;;;;;;30.55;14.95;;;;;;;-1.02;92.64;100480.06;5111796;28;20019;-78
2021/12/07 09:11:36;;;;;;;34.08;14.15;;;;;;;-0.96;92.44;100484.06;5111876;28;20042;-78
2021/12/07 09:14:01;;;;;;;29.20;13.70;;;;;;;-0.95;92.64;100486.59;5094649;28;20066;-78
2021/12/07 09:16:27;;;;;;;34.15;14.77;;;;;;;-0.90;92.65;100499.41;5112718;28;20512;-78
2021/12/07 09:18:52;;;;;;;29.08;13.35;;;;;;;-0.90;92.64;100492.38;5111611;28;20372;-77
2021/12/07 09:21:19;;;;;;;31.10;13.30;;;;;;;-0.90;92.97;100495.00;5112741;28;20833;-78
2021/12/07 09:23:46;;;;;;;35.63;17.05;;;;;;;-0.90;92.66;100495.00;5111089;28;20134;-78
2021/12/07 09:26:13;;;;;;;36.75;14.85;;;;;;;-0.82;92.70;100517.28;5111131;28;20527;-78
2021/12/07 09:28:40;;;;;;;34.05;14.52;;;;;;;-0.85;92.73;100508.66;5111558;28;20520;-78
2021/12/07 09:31:07;;;;;;;36.70;16.42;;;;;;;-0.88;92.78;100500.16;5112344;28;20093;-77
2021/12/07 09:33:34;;;;;;;34.88;15.05;;;;;;;-0.83;92.40;100500.72;5111323;28;20172;-78
2021/12/07 09:36:00;;;;;;;36.55;16.92;;;;;;;-0.99;92.58;100473.78;5111353;28;20046;-78
2021/12/07 09:38:26;;;;;;;34.67;14.70;;;;;;;-0.99;92.67;100484.25;5111074;28;20036;-78
2021/12/07 09:40:53;;;;;;;33.35;15.30;;;;;;;-0.88;93.28;100511.50;5094439;28;20039;-78
2021/12/07 09:43:18;;;;;;;35.80;15.05;;;;;;;-0.78;93.13;100535.34;5112312;28;20143;-78
2021/12/07 09:45:44;;;;;;;31.02;14.50;;;;;;;-0.79;93.04;100522.34;5111177;28;20404;-78
2021/12/07 09:48:11;;;;;;;36.80;16.52;;;;;;;-0.82;93.23;100512.03;5111241;28;20035;-78
2021/12/07 09:50:40;;;;;;;40.47;16.33;;;;;;;-0.92;93.29;100491.63;5110975;28;20031;-78
2021/12/07 09:53:08;;;;;;;35.80;16.88;;;;;;;-0.91;93.45;100498.59;5111840;28;20039;-78
2021/12/07 09:55:38;;;;;;;30.52;14.52;;;;;;;-0.81;93.49;100511.13;5111911;28;20082;-78
2021/12/07 09:58:07;;;;;;;33.47;15.13;;;;;;;-0.67;93.66;100529.44;5093282;28;20043;-78
2021/12/07 10:00:33;;;;;;;39.47;14.93;;;;;;;-0.71;93.39;100520.91;5111497;28;20445;-78
2021/12/07 10:02:59;;;;;;;33.65;14.73;;;;;;;-0.74;93.53;100509.81;5093688;28;20031;-78
2021/12/07 10:05:27;;;;;;;35.03;15.57;;;;;;;-0.80;93.67;100502.31;5093648;28;20023;-77
2021/12/07 10:07:53;;;;;;;37.92;16.10;;;;;;;-0.67;93.71;100526.81;5110903;28;20408;-78
2021/12/07 10:10:23;;;;;;;33.40;16.63;;;;;;;-0.77;93.79;100504.72;5110622;28;20452;-78
2021/12/07 10:12:50;;;;;;;33.28;16.05;;;;;;;-0.77;93.86;100521.31;5093723;28;20035;-78
2021/12/07 10:15:16;;;;;;;40.78;17.25;;;;;;;-0.71;93.95;100522.72;5110361;28;20135;-78
2021/12/07 10:17:43;;;;;;;34.80;17.42;;;;;;;-0.85;94.10;100495.56;5110617;28;20049;-78
2021/12/07 10:20:25;;;;;;;36.45;15.65;;;;;;;-0.76;94.23;100516.91;5110557;28;20467;-79
2021/12/07 10:22:52;;;;;;;33.97;15.07;;;;;;;-0.71;94.20;100523.53;5111455;28;20028;-78
2021/12/07 10:25:24;;;;;;;;;;;;;;;-0.72;94.25;100519.25;5093675;28;20032;-78
2021/12/07 10:27:49;;;;;;;35.00;15.52;;;;;;;-0.76;94.68;100509.88;5110346;28;19928;-78
2021/12/07 10:30:21;;;;;;;37.78;16.55;;;;;;;-0.70;94.46;100517.38;5111287;28;20035;-78
2021/12/07 10:33:02;;;;;;;31.48;15.93;;;;;;;-0.73;94.60;100511.47;5111302;28;20465;-78
2021/12/07 10:35:30;;;;;;;37.00;17.58;;;;;;;-0.66;94.66;100518.00;5109946;28;20403;-79
2021/12/07 10:38:14;;;;;;;40.03;19.58;;;;;;;-0.58;94.80;100541.16;5109998;28;20524;-78
2021/12/07 10:40:59;;;;;;;39.28;17.83;;;;;;;-0.71;94.66;100515.69;5110183;28;20343;-78
2021/12/07 10:43:46;;;;;;;34.40;16.15;;;;;;;-0.71;94.76;100517.47;5111261;28;20050;-79
2021/12/07 10:46:25;;;;;;;40.08;18.30;;;;;;;-0.61;95.11;100531.66;5110122;28;20464;-78
2021/12/07 10:49:06;;;;;;;38.97;17.73;;;;;;;-0.66;94.91;100518.00;5109905;28;20345;-79
2021/12/07 10:51:31;;;;;;;37.95;17.70;;;;;;;-0.52;94.96;100531.09;5093054;28;20507;-79
2021/12/07 10:53:57;;;;;;;35.73;16.77;;;;;;;-0.56;95.06;100532.25;5110597;27;20173;-78
2021/12/07 10:56:30;;;;;;;41.60;18.27;;;;;;;-0.29;94.75;100539.31;5109943;28;20607;-79
2021/12/07 10:59:05;;;;;;;41.15;18.20;;;;;;;-0.03;94.57;100567.31;5110171;28;20039;-78
2021/12/07 11:01:41;;;;;;;37.08;18.92;;;;;;;-0.24;94.22;100524.09;5109656;28;20028;-79
2021/12/07 11:04:19;;;;;;;;;;;;;;;-0.54;94.38;100488.41;5111060;28;20067;-78
2021/12/07 11:07:09;;;;;;;37.55;17.83;;;;;;;-0.32;94.67;100529.00;5109653;28;20111;-78
2021/12/07 11:10:28;;;;;;;38.80;16.30;;;;;;;-0.19;94.54;100523.81;5109490;28;20441;-78
2021/12/07 11:13:07;;;;;;;43.88;20.85;;;;;;;-0.15;94.38;100523.50;5107436;28;20051;-79
2021/12/07 11:15:36;;;;;;;38.55;16.88;;;;;;;-0.23;94.47;100508.28;5109132;28;20032;-78
2021/12/07 11:18:07;;;;;;;40.40;16.90;;;;;;;-0.33;94.63;100494.06;5109312;28;20070;-78
2021/12/07 11:20:33;;;;;;;41.60;19.52;;;;;;;-0.26;94.55;100497.13;5110342;28;20028;-78
2021/12/07 11:23:07;;;;;;;;;;;;;;;-0.30;94.66;100493.88;5092978;28;20088;-78
2021/12/07 11:29:39;;;;;;;43.67;18.38;;;;;;;-0.37;94.94;100491.75;5109102;28;19912;-78
2021/12/07 11:31:24;;;;;;;40.67;19.35;;;;;;;-0.32;95.33;100514.09;5109123;28;20035;-79
2021/12/07 11:33:52;;;;;;;47.22;17.92;;;;;;;-0.21;95.30;100523.91;5110161;28;20506;-79
2021/12/07 11:36:29;;;;;;;43.97;19.17;;;;;;;-0.40;95.41;100498.00;5109858;28;20031;-79
2021/12/07 11:38:56;;;;;;;46.20;19.75;;;;;;;-0.39;95.51;100519.84;5108908;28;20183;-79
2021/12/07 11:41:25;;;;;;;42.90;21.80;;;;;;;-0.54;95.92;100493.66;5109113;28;20053;-78
2021/12/07 11:43:59;;;;;;;43.95;19.60;;;;;;;-0.42;96.17;100520.88;5108777;28;20110;-79
2021/12/07 11:46:26;;;;;;;44.97;19.80;;;;;;;-0.45;96.38;100514.03;5108917;28;20047;-78
2021/12/07 11:49:14;;;;;;;43.58;20.02;;;;;;;-0.43;96.33;100524.44;5109855;28;20031;-79
2021/12/07 11:51:43;;;;;;;44.60;19.45;;;;;;;-0.53;96.42;100511.06;5109981;28;20114;-78
2021/12/07 11:54:10;;;;;;;43.22;19.45;;;;;;;-0.45;97.02;100529.75;5091239;28;20515;-79
2021/12/07 11:56:35;;;;;;;49.70;20.77;;;;;;;-0.27;96.89;100561.03;5091231;28;20184;-79
2021/12/07 11:59:03;;;;;;;43.72;20.17;;;;;;;-0.27;96.83;100546.13;5091624;28;20126;-79
2021/12/07 12:01:31;;;;;;;41.05;17.60;;;;;;;-0.34;97.02;100536.97;5108515;28;20503;-79
2021/12/07 12:03:56;;;;;;;;;;;;;;;-0.43;97.06;100520.03;5108863;28;20039;-79
2021/12/07 12:06:21;;;;;;;45.03;20.58;;;;;;;-0.38;97.17;100537.25;5108753;28;19911;-79
2021/12/07 12:08:49;;;;;;;46.38;20.13;;;;;;;-0.35;97.34;100537.91;5108465;28;20037;-79
2021/12/07 12:11:33;;;;;;;46.92;21.65;;;;;;;-0.26;97.37;100537.34;5091453;28;20050;-78
2021/12/07 12:14:16;;;;;;;50.53;20.70;;;;;;;-0.25;97.46;100539.00;5109103;28;20112;-79
2021/12/07 12:17:00;;;;;;;45.45;21.33;;;;;;;-0.30;97.42;100524.50;5108601;28;20361;-78
2021/12/07 12:19:49;;;;;;;48.88;22.30;;;;;;;-0.29;97.90;100536.69;5108264;28;20365;-79
2021/12/07 12:22:36;;;;;;;55.47;24.25;;;;;;;-0.07;97.67;100552.75;5108361;28;20042;-79
2021/12/07 12:25:11;;;;;;;46.83;20.55;;;;;;;-0.01;97.46;100541.00;5108843;28;20032;-79
2021/12/07 12:27:37;;;;;;;45.60;20.42;;;;;;;-0.19;97.14;100503.66;5109259;27;20035;-79
2021/12/07 12:30:21;;;;;;;42.42;21.33;;;;;;;-0.18;97.31;100512.38;5108122;28;20036;-79
2021/12/07 12:32:53;;;;;;;48.08;21.75;;;;;;;-0.32;97.39;100506.22;5091488;28;20039;-79
2021/12/07 12:35:26;;;;;;;45.10;21.55;;;;;;;-0.31;97.63;100514.94;5107843;28;20120;-78
2021/12/07 12:37:52;;;;;;;48.90;21.83;;;;;;;-0.15;97.73;100552.38;5108892;28;20350;-79
2021/12/07 12:40:27;;;;;;;55.57;24.00;;;;;;;0.04;97.58;100577.44;5091182;28;20042;-79
2021/12/07 12:42:54;;;;;;;54.08;23.88;;;;;;;-0.16;97.20;100542.84;5108188;28;20058;-79
2021/12/07 12:45:37;;;;;;;57.22;23.80;;;;;;;-0.28;97.23;100527.84;5107664;28;20039;-79
2021/12/07 12:48:12;;;;;;;53.30;24.00;;;;;;;-0.29;97.59;100541.91;5108200;28;20126;-78
2021/12/07 12:50:44;;;;;;;57.35;25.65;;;;;;;-0.25;97.82;100546.03;5107805;28;20043;-78
2021/12/07 12:53:16;;;;;;;52.63;24.67;;;;;;;-0.14;97.84;100553.22;5107655;28;20043;-79
2021/12/07 12:55:49;;;;;;;55.40;22.67;;;;;;;-0.09;98.07;100559.03;5107620;28;20092;-79
2021/12/07 12:58:35;;;;;;;46.20;21.23;;;;;;;-0.13;97.85;100561.00;5107751;28;20445;-78
2021/12/07 13:01:10;;;;;;;47.25;21.48;;;;;;;-0.18;98.22;100560.44;5108696;28;20117;-79
2021/12/07 13:03:53;;;;;;;51.50;22.92;;;;;;;-0.10;98.24;100573.06;5107802;28;20044;-79